Historyczne dane pomiarowe

Dodano dane terminowe – wersja testowa.

Dane z okresu 1951-2019

Wersja bazy: 1.34 [2019-03-16, lista zmian], aktualizacja planowana na 2019-04-15

Dane meteo z obszaru Polski uzyskane na podstawie danych udostępnionych przez Instytut Meteorologii i Gospodarki Wodnej – Państwowy Instytut Badawczy.

 

Wybierz Datę:    

       

TemperaturaWilgotnośćWiatrCiśnienieOpadyŚniegCzas trwania zjawisk
 Stacja t tx tn tng RH VA  wxwx mslp ppp RRR   cm mm wxwxwxwxwxwxwx
1994-08-14 14.3 17.4 9.5- 60.0- 4.0 3.3---- 0.0------------
1994-08-13 15.9 19.6 14.5- 73.0- 5.0 3.0---- 0.0------------
1994-08-12 16.4 19.4 12.3- 88.8- 7.0 1.0---- 12.5------------
1994-08-11 18.9 26.2 17.0- 88.5- 8.0 0.0---- 64.2------------
1994-08-10 21.5 29.0 12.5- 66.5- 6.3 2.7---- 9.2------------
1994-08-09 20.5 24.6 16.8- 75.3- 6.0 1.0---- 0.6------------
1994-08-08 21.4 26.6 16.0- 73.8- 7.3 0.0---- 10.5------------
1994-08-07 22.5 26.5 15.0- 66.8- 6.3 1.0---- 3.0------------
1994-08-06 24.0 31.3 11.4- 58.5- 4.0 2.7---- 0.0------------
1994-08-05 23.4 33.1 10.9- 46.8- 4.0 1.7---- 0.0------------
1994-08-04 22.7 30.4 11.4- 46.8- 3.3 2.7---- 0.0------------
1994-08-03 22.9 29.8 16.0- 57.8- 3.0 1.0---- 0.0------------
1994-08-02 24.0 34.1 17.4- 64.5- 3.7 0.0---- 0.0------------
1994-08-01 31.5 35.5 22.6- 32.0- 3.3 1.0---- 0.0------------
1994-07-31 29.7 35.9 19.6- 37.3- 4.0 0.0---- 0.0------------
1994-07-30 26.7 35.6 15.0- 49.8- 2.0 0.7---- 0.0------------
1994-07-29 25.7 35.1 14.8- 50.5- 2.3 0.3---- 0.0------------
1994-07-28 25.6 34.1 15.0- 55.5- 3.3 1.0---- 0.0------------
1994-07-27 24.9 31.9 17.5- 64.8- 2.7 1.0---- 0.0------------
1994-07-26 26.7 33.6 18.1- 55.0- 2.0 0.3---- 0.0------------
1994-07-25 24.9 32.1 13.5- 50.5- 3.0 0.0---- 0.0------------
1994-07-24 23.5 30.6 11.3- 54.3- 2.3 0.7---- 0.0------------
1994-07-23 22.4 30.1 10.9- 50.5- 3.0 0.0---- 0.0------------
1994-07-22 23.0 30.1 9.4- 51.3- 3.0 0.0---- 0.0------------
1994-07-21 19.8 27.1 9.9- 58.3- 3.3 1.7---- 0.0------------
1994-07-20 18.9 24.5 8.8- 53.3- 3.0 1.0---- 0.0------------
1994-07-19 15.9 22.9 15.4- 79.3- 5.0 1.0---- 0.0------------
1994-07-18 19.0 23.9 12.9- 79.3- 5.3 1.7---- 24.2------------
1994-07-17 21.2 27.7 15.2- 72.5- 3.3 0.3---- 0.0------------
1994-07-16 21.9 27.1 15.5- 68.5- 2.3 2.3---- 0.0------------
1994-07-15 21.3 29.5 14.0- 73.0- 4.3 2.0---- 0.0------------
1994-07-14 23.8 31.6 13.4- 56.3- 3.7 0.0---- 0.0------------
1994-07-13 23.3 29.0 12.7- 57.0- 3.7 0.3---- 0.0------------
1994-07-12 21.6 26.6 11.4- 67.5- 3.0 1.0---- 0.0------------
1994-07-11 21.3 27.1 10.9- 61.5- 3.3 1.3---- 0.0------------
1994-07-10 18.8 23.6 10.9- 71.0- 3.3 1.0---- 0.0------------
1994-07-09 16.3 21.1 13.4- 73.5- 4.0 1.0---- 0.0------------
1994-07-08 14.2 16.1 10.9- 73.3- 6.3 1.0---- 0.2------------
1994-07-07 16.0 23.9 11.5- 84.0- 5.7 2.7---- 3.7------------
1994-07-06 20.6 24.9 16.3- 70.0- 4.0 1.3---- 0.0------------
1994-07-05 21.5 30.3 15.0- 74.3- 6.0 1.0---- 3.3------------
1994-07-04 24.5 31.5 13.5- 54.8- 3.0 1.0---- 0.0------------
1994-07-03 23.0 30.1 9.9- 60.3- 3.7 0.0---- 0.0------------
1994-07-02 19.2 26.9 8.5- 65.0- 2.3 0.3---- 0.0------------
1994-07-01 16.8 23.9 8.0- 65.3- 3.7 1.3---- 0.0------------
1994-06-30 18.8 30.1 15.5- 77.3- 6.3 1.0---- 11.9------------
1994-06-29 27.9 32.1 21.1- 58.3- 4.3 1.0---- 3.6------------
1994-06-28 25.4 31.5 17.0- 70.8- 4.0 0.7---- 0.0------------
1994-06-27 23.8 30.6 14.0- 65.0- 4.0 2.3---- 0.0------------
1994-06-26 24.8 28.9 16.4- 52.5- 3.3 1.7---- 0.0------------
1994-06-25 19.0 26.7 6.0- 48.8- 4.0 1.0---- 0.0------------
1994-06-24 14.0 20.6 4.6- 49.3- 3.3 1.7---- 0.0------------
1994-06-23 16.6 21.6 12.4- 50.5- 3.0 0.0---- 0.0------------
1994-06-22 20.7 25.7 11.9- 64.3- 3.3 0.0---- 0.0------------
1994-06-21 16.6 22.5 8.0- 66.3- 4.0 1.0---- 0.0------------
1994-06-20 16.7 24.1 12.9- 70.8- 5.3 2.3---- 0.0------------
1994-06-19 20.5 25.3 7.5- 52.0- 3.3 4.0---- 0.0------------
1994-06-18 14.0 19.6 4.6- 62.5- 6.0 3.7---- 1.6------------
1994-06-17 10.7 14.6 6.0- 60.8- 4.3 1.0---- 0.0------------
1994-06-16 10.4 14.9 6.5- 76.5- 6.3 1.0---- 4.5------------
279.0 ms

 

Źródłem pochodzenia danych jest Instytut Meteorologii i Gospodarki Wodnej – Państwowy Instytut Badawczy. Dane Instytutu Meteorologii i Gospodarki Wodnej – Państwowego Instytutu Badawczego zostały przetworzone.

Dane źródłowe można odnaleźć na stronie https://dane.imgw.pl